Terminal Aerodrome Forecast
Issued by NWS Buffalo, NY

Home | Current Version | Previous Version | Text Only | Print | Product List | Glossary On
Versions: 1 2 3 4 5 6 7 8 9 10 11 12 13 14 15 16 17 18 19 20 21 22 23 24 25 26 27
000
FTUS41 KBUF 210500
TAFBUF
TAF
KBUF 210520Z 2106/2206 VRB03KT P6SM SCT025 BKN080
      TEMPO 2106/2108 BKN025 BKN080
     FM210800 VRB03KT P6SM BKN035 OVC120
     FM211400 26005KT P6SM SCT040 OVC250=

USA.gov is the U.S. government's official web portal to all federal, state and local government web resources and services.